Airfield :
LOGIN :

Register | Disclaimer

   EN    FR    IT 

 










Legend :    VFR   Marginal VFR   IFR   Intensive IFR   Very Intensive IFR
Visi :
Ceiling :
>= 8 km
>= 3000ft
5 to 8 km
1000 to 3000 ft
1500m to 5 km
500 to 1000 ft
800 to 1500m
200 to 500 ft
< 800m
< 200 ft
Symbols :   Thunderstorms  Fog  Heavy snow  Heavy precipitations  Wind > 20 kt
SIGMETs :     Misc.  Thunderstorms  Icing  Turbulence  Mountain Waves  Volcanic Ashes







- Airport Elevation : 33 ft
- IATA code : MHZ


EGUN - RAF Mildenhall

CURRENT METAR :
  • 191521Z AUTO 22026G34KT 9999 BKN055 23/12 A2977 RMK AO2 SLP084

EXPIRED METARs :
  • 191456Z AUTO 22028G35KT 9999 SCT060 24/12 A2976 RMK AO2 PK WND 21045/12 SLP081 T02350122 55001
  • 191426Z AUTO 22022G35KT 9999 BKN055 23/12 A2978 RMK AO2 SLP087
  • 191421Z 22023G45KT 9999 SCT055 24/12 A2977 RMK SLP084
  • 191356Z AUTO 21021G36KT 9999 SCT050 24/12 A2977 RMK AO2 PK WND 22040/36 SLP084 T02360122
  • 191337Z 22027G40KT 9999 SCT050 24/12 A2976 RMK SLP081
  • 191256Z AUTO 22027G34KT 9999 SCT047 24/13 A2975 RMK AO2 PK WND 22037/54 SLP077 T02430129
  • 191246Z AUTO 21028G35KT 9999 SCT047 SCT055 24/13 A2976 RMK AO2 SLP081
  • 191236Z AUTO 22024G36KT 9999 SCT049 BKN055 23/13 A2977 RMK AO2 SLP084

TAF AMD TAF EGUN
Valid from the 19 at 14:00 until the 20 at 18:00 UTC


191426Z 1914/2018 22020G35KT 9999 SCT020 BKN090 510003 QNH2978INS
TEMPO 1914/1916 22030G45KT 530003
BECMG 1917/1918 25015G25KT 9999 SCT040 BKN080 QNH2985INS
BECMG 1922/1923 24012KT 9999 BKN020 QNH2982INS
TEMPO 2002/2006 8000 -RA BKN010
BECMG 2005/2006 20012G20KT 6000 -SHRA BKN010 QNH2981INS
TEMPO 2006/2008 21015G25KT BKN015
BECMG 2007/2008 21015G25KT 9999 NSW BKN020 QNH2962INS
TEMPO 2008/2012 6000 -SHRA
TEMPO 2017/2018 20025G35KT 510003 TX24/1915Z TN11/2003Z
No reported NOTAMs for that airfield.
4 SIGMETs reported for the London FIR (EGTT) :
 
Severe mountain waves
EGTT SIGMET 11 VALID 191300/191700 EGRR
EGTT LONDON FIR SEV MTW FCST WI N5311 E00322 - N5143 E00210 - N4947 W00545 - N5139 W00647 - N5220 W00530 - N5500 W00530 - N5500 W00100 - N5311 E00322 FL030/250 STNR NC=
Severe turbulence
EGTT SIGMET 10 VALID 191300/191700 EGRR
EGTT LONDON FIR SEV TURB FCST N OF N4958 AND E OF W00534 SFC/FL060 MOV ENE 40KT WKN=
SIGMET 08 cancelation
EGTT SIGMET 09 VALID 191245/191632 EGRR
EGTT LONDON FIR CNL SIGMET 08 191232/191632=
SIGMET 08  CANCELED :
Severe turbulence
EGTT SIGMET 08 VALID 191232/191632 EGRR
EGTT LONDON FIR SEV TURB FCST N OF N4955 AND E OF W00546 SFC/FL060 MOV ENE 40KT WKN=



MET'MAP, your aeronautical weather chart ! - Copyright ORBIFLY December 2007 - Disclaimer

ORBIFLY MET'MAP TEAM :

Programming & Development : Alexandra Zaïnal
Concept & Development : Baudouin d'Aumeries
Co-Development & Prog : Marc-Olivier Méhu
Technical & hardware support : Manuel Goepfert

Contact : metmap@orbifly.com




SOURCES & CREDITS :

   NOAA